createdAt,value
2019-05-26T00:04:54.804Z,1019
2019-05-26T00:10:27.663Z,1019
2019-05-26T00:16:00.483Z,1018.9
2019-05-26T00:21:33.305Z,1019
2019-05-26T00:27:06.062Z,1019
2019-05-26T00:32:38.859Z,1019
2019-05-26T00:38:11.582Z,1018.9
2019-05-26T00:43:44.288Z,1018.9
2019-05-26T00:49:17.057Z,1018.9
2019-05-26T00:54:49.799Z,1018.9
2019-05-26T01:00:22.458Z,1018.9
2019-05-26T01:05:55.090Z,1019
2019-05-26T01:11:22.174Z,1018.9
2019-05-26T01:16:55.875Z,1018.8
2019-05-26T01:22:27.511Z,1018.8
2019-05-26T01:28:00.335Z,1018.8
2019-05-26T01:33:33.040Z,1018.9
2019-05-26T01:39:05.863Z,1018.7
2019-05-26T01:44:38.622Z,1018.8
2019-05-26T01:50:11.451Z,1018.8
2019-05-26T01:55:44.140Z,1018.9
2019-05-26T02:01:17.027Z,1018.8
2019-05-26T02:06:49.736Z,1018.9
2019-05-26T02:12:22.553Z,1018.9
2019-05-26T02:17:55.412Z,1018.9
2019-05-26T02:23:28.133Z,1018.9
2019-05-26T02:29:00.935Z,1019
2019-05-26T02:34:33.766Z,1018.9
2019-05-26T02:40:06.585Z,1018.9
2019-05-26T02:45:39.411Z,1018.9
2019-05-26T02:51:12.164Z,1018.8
2019-05-26T02:56:45.015Z,1018.7
2019-05-26T03:02:17.804Z,1018.8
2019-05-26T03:07:50.534Z,1018.7
2019-05-26T03:13:23.326Z,1018.8
2019-05-26T03:18:56.109Z,1018.7
2019-05-26T03:24:28.900Z,1018.8
2019-05-26T03:30:01.725Z,1018.8
2019-05-26T03:35:34.515Z,1018.8
2019-05-26T03:41:07.199Z,1018.8
2019-05-26T03:46:40.048Z,1018.8
2019-05-26T03:52:12.795Z,1018.8
2019-05-26T03:57:45.501Z,1018.8
2019-05-26T04:03:18.227Z,1018.8
2019-05-26T04:08:51.826Z,1018.8
2019-05-26T04:14:23.621Z,1018.9
2019-05-26T04:19:56.309Z,1019
2019-05-26T04:25:28.983Z,1019
2019-05-26T04:31:01.608Z,1019.1
2019-05-26T04:36:34.328Z,1019.1
2019-05-26T04:42:06.958Z,1019.2
2019-05-26T04:47:39.658Z,1019.1
2019-05-26T04:53:12.403Z,1019.1
2019-05-26T04:58:45.206Z,1019.1
2019-05-26T05:04:18.012Z,1019
2019-05-26T05:09:50.770Z,1018.9
2019-05-26T05:15:23.717Z,1018.8
2019-05-26T05:20:56.601Z,1018.8
2019-05-26T05:26:29.623Z,1018.8
2019-05-26T05:32:02.614Z,1018.8
2019-05-26T05:37:35.522Z,1018.8
2019-05-26T05:43:08.530Z,1018.7
2019-05-26T05:48:41.530Z,1018.6
2019-05-26T05:54:14.632Z,1018.5
2019-05-26T05:59:47.762Z,1018.3
2019-05-26T06:05:21.015Z,1018
2019-05-26T06:10:54.447Z,1018
2019-05-26T06:16:27.944Z,1018.1
2019-05-26T06:22:01.490Z,1017.9
2019-05-26T06:27:35.062Z,1017.8
2019-05-26T06:33:09.386Z,1017.8
2019-05-26T06:38:43.340Z,1017.8
2019-05-26T06:44:17.432Z,1017.8
2019-05-26T06:49:50.610Z,1017.9
2019-05-26T06:55:25.155Z,1018
2019-05-26T07:00:59.276Z,1018
2019-05-26T07:06:33.082Z,1017.8
2019-05-26T07:12:06.982Z,1017.9
2019-05-26T07:17:41.010Z,1017.7
2019-05-26T07:23:15.202Z,1017.6
2019-05-26T07:28:50.127Z,1017.8
2019-05-26T07:34:25.057Z,1017.8
2019-05-26T07:39:59.943Z,1017.7
2019-05-26T07:45:34.775Z,1017.8
2019-05-26T07:51:09.416Z,1017.6
2019-05-26T07:56:43.870Z,1017.5
2019-05-26T08:02:19.012Z,1017.4
2019-05-26T08:07:53.863Z,1017.5
2019-05-26T08:13:28.860Z,1017.4
2019-05-26T08:19:03.989Z,1017.4
2019-05-26T08:24:39.230Z,1017.4
2019-05-26T08:30:14.317Z,1017.5
2019-05-26T08:35:49.071Z,1017.3
2019-05-26T08:41:24.297Z,1017.3
2019-05-26T08:46:59.456Z,1017.2
2019-05-26T08:52:34.415Z,1017.1
2019-05-26T08:58:09.775Z,1017.1
2019-05-26T09:03:44.641Z,1016.9
2019-05-26T09:09:19.994Z,1016.9
2019-05-26T09:14:55.521Z,1017
2019-05-26T09:20:30.581Z,1016.6
2019-05-26T09:26:06.270Z,1016.7
2019-05-26T09:31:41.746Z,1016.7
2019-05-26T09:37:17.399Z,1016.6
2019-05-26T09:42:52.816Z,1016.4
2019-05-26T09:48:28.516Z,1016.5
2019-05-26T09:54:04.168Z,1016.5
2019-05-26T09:59:39.949Z,1016.4
2019-05-26T10:05:15.803Z,1016.4
2019-05-26T10:10:51.264Z,1016.3
2019-05-26T10:16:27.017Z,1016.3
2019-05-26T10:22:02.745Z,1016.2
2019-05-26T10:27:38.537Z,1016.2
2019-05-26T10:33:14.262Z,1016.2
2019-05-26T10:38:50.129Z,1016.1
2019-05-26T10:44:25.885Z,1016.1
2019-05-26T10:50:01.630Z,1016
2019-05-26T10:55:37.421Z,1016
2019-05-26T11:01:13.076Z,1015.8
2019-05-26T11:06:49.045Z,1015.6
2019-05-26T11:12:25.092Z,1015.7
2019-05-26T11:18:01.109Z,1015.6
2019-05-26T11:23:37.030Z,1015.4
2019-05-26T11:29:13.081Z,1015.3
2019-05-26T11:35:00.919Z,1015.2
2019-05-26T11:40:25.351Z,1015.2
2019-05-26T11:46:01.495Z,1015.1
2019-05-26T11:51:37.784Z,1015
2019-05-26T11:57:14.139Z,1015.1
2019-05-26T12:02:50.257Z,1014.9
2019-05-26T12:08:26.397Z,1014.8
2019-05-26T12:14:02.939Z,1014.7
2019-05-26T12:19:39.376Z,1015
2019-05-26T12:25:19.834Z,1015
2019-05-26T12:30:55.404Z,1015
2019-05-26T12:36:30.827Z,1015.1
2019-05-26T12:42:06.087Z,1015
2019-05-26T12:47:41.324Z,1014.9
2019-05-26T12:53:16.605Z,1014.9
2019-05-26T12:58:51.793Z,1015
2019-05-26T13:04:27.007Z,1015
2019-05-26T13:10:02.204Z,1015.1
2019-05-26T13:15:37.262Z,1015.1
2019-05-26T13:21:12.269Z,1015.1
2019-05-26T13:26:47.229Z,1015.1
2019-05-26T13:32:22.214Z,1015.1
2019-05-26T13:37:57.154Z,1015.1
2019-05-26T13:43:31.999Z,1015
2019-05-26T13:49:06.960Z,1014.9
2019-05-26T13:54:41.987Z,1015
2019-05-26T14:00:16.991Z,1015
2019-05-26T14:05:52.036Z,1014.9
2019-05-26T14:11:27.179Z,1014.8
2019-05-26T14:17:02.297Z,1014.8
2019-05-26T14:22:36.687Z,1014.6
2019-05-26T14:28:11.261Z,1014.6
2019-05-26T14:33:46.128Z,1014
2019-05-26T14:39:22.069Z,1013.7
2019-05-26T14:44:57.687Z,1013.7
2019-05-26T14:50:33.578Z,1013.7
2019-05-26T14:56:09.761Z,1013.8
2019-05-26T15:01:46.682Z,1014
2019-05-26T15:07:23.158Z,1014.2
2019-05-26T15:12:59.671Z,1014.2
2019-05-26T15:18:35.617Z,1014.3
2019-05-26T15:24:11.455Z,1014.3
2019-05-26T15:29:46.416Z,1014.3
2019-05-26T15:35:21.201Z,1014.3
2019-05-26T15:40:55.831Z,1014.2
2019-05-26T15:46:30.499Z,1014.1
2019-05-26T15:52:05.334Z,1014.2
2019-05-26T15:57:40.074Z,1014
2019-05-26T16:03:14.856Z,1014
2019-05-26T16:08:49.617Z,1014.1
2019-05-26T16:14:25.108Z,1014.1
2019-05-26T16:20:00.563Z,1014.1
2019-05-26T16:25:35.856Z,1014.1
2019-05-26T16:31:12.230Z,1014.1
2019-05-26T16:36:46.756Z,1013.9
2019-05-26T16:42:22.488Z,1013.8
2019-05-26T16:47:58.376Z,1013.8
2019-05-26T16:53:34.158Z,1013.9
2019-05-26T16:59:09.802Z,1013.9
2019-05-26T17:04:45.351Z,1013.9
2019-05-26T17:10:20.748Z,1014.1
2019-05-26T17:15:55.888Z,1014
2019-05-26T17:21:30.711Z,1013.8
2019-05-26T17:27:05.283Z,1013.9
2019-05-26T17:32:39.842Z,1013.8
2019-05-26T17:38:14.362Z,1014
2019-05-26T17:43:48.540Z,1014
2019-05-26T17:49:22.876Z,1013.9
2019-05-26T17:54:57.319Z,1013.9
2019-05-26T18:00:32.054Z,1013.8
2019-05-26T18:06:06.945Z,1013.8
2019-05-26T18:11:41.674Z,1013.8
2019-05-26T18:17:16.308Z,1013.8
2019-05-26T18:22:50.693Z,1013.9
2019-05-26T18:28:24.823Z,1013.9
2019-05-26T18:33:58.963Z,1014
2019-05-26T18:39:32.910Z,1014
2019-05-26T18:45:06.782Z,1014.1
2019-05-26T18:50:40.543Z,1014.2
2019-05-26T18:56:14.139Z,1014.3
2019-05-26T19:01:47.756Z,1014.5
2019-05-26T19:07:21.233Z,1014.6
2019-05-26T19:12:54.658Z,1014.7
2019-05-26T19:18:28.096Z,1014.7
2019-05-26T19:24:01.400Z,1014.9
2019-05-26T19:29:35.079Z,1014.9
2019-05-26T19:35:07.800Z,1014.9
2019-05-26T19:40:41.024Z,1015
2019-05-26T19:46:14.241Z,1015.1
2019-05-26T19:51:47.421Z,1015.3
2019-05-26T19:57:20.639Z,1015.3
2019-05-26T20:02:54.351Z,1015.2
2019-05-26T20:08:28.520Z,1015.2
2019-05-26T20:14:02.716Z,1015.2
2019-05-26T20:19:36.827Z,1015.1
2019-05-26T20:25:10.927Z,1015.1
2019-05-26T20:30:45.428Z,1015
2019-05-26T20:36:19.291Z,1015
2019-05-26T20:41:53.511Z,1015.1
2019-05-26T20:47:27.727Z,1015.1
2019-05-26T20:53:01.886Z,1015.2
2019-05-26T20:58:35.736Z,1015.5
2019-05-26T21:04:09.241Z,1015.3
2019-05-26T21:09:43.188Z,1015.3
2019-05-26T21:15:17.165Z,1015.3
2019-05-26T21:20:50.276Z,1015.3
2019-05-26T21:26:23.392Z,1015.3
2019-05-26T21:31:57.167Z,1015.3
2019-05-26T21:37:31.091Z,1015.3
2019-05-26T21:43:04.994Z,1015.3
2019-05-26T21:48:38.863Z,1015.3
2019-05-26T21:54:12.398Z,1015.3
2019-05-26T21:59:45.482Z,1015.3
2019-05-26T22:05:18.440Z,1015.2
2019-05-26T22:10:51.501Z,1015.4
2019-05-26T22:16:24.501Z,1015.4
2019-05-26T22:21:57.448Z,1015.4
2019-05-26T22:27:30.389Z,1015.3
2019-05-26T22:33:04.108Z,1015.4
2019-05-26T22:38:37.907Z,1015.4
2019-05-26T22:44:11.616Z,1015.5
2019-05-26T22:49:45.391Z,1015.3
2019-05-26T22:55:19.127Z,1015.3
2019-05-26T23:00:52.831Z,1015.2
2019-05-26T23:06:26.629Z,1015.1
2019-05-26T23:12:00.250Z,1015.2
2019-05-26T23:17:33.157Z,1015.2
2019-05-26T23:23:06.159Z,1015.2
2019-05-26T23:28:39.014Z,1015.2
2019-05-26T23:34:11.970Z,1015.2
2019-05-26T23:39:44.865Z,1015.2
2019-05-26T23:45:17.701Z,1015.2
2019-05-26T23:50:50.630Z,1015.2
2019-05-26T23:56:23.543Z,1015.2
